createdAt,value
2023-05-15T00:01:57.381Z,100523.36
2023-05-15T00:04:24.276Z,100521.39
2023-05-15T00:06:51.451Z,100522.40
2023-05-15T00:09:18.357Z,100528.64
2023-05-15T00:11:45.213Z,100520.59
2023-05-15T00:14:12.112Z,100520.20
2023-05-15T00:16:39.138Z,100516.02
2023-05-15T00:19:06.209Z,100514.96
2023-05-15T00:21:33.220Z,100520.14
2023-05-15T00:24:00.173Z,100517.66
2023-05-15T00:26:27.114Z,100508.73
2023-05-15T00:28:54.102Z,100511.45
2023-05-15T00:31:21.086Z,100517.62
2023-05-15T00:33:48.189Z,100513.90
2023-05-15T00:36:15.180Z,100510.58
2023-05-15T00:38:42.127Z,100507.93
2023-05-15T00:41:09.138Z,100506.20
2023-05-15T00:43:36.833Z,100502.19
2023-05-15T00:46:03.768Z,100502.02
2023-05-15T00:48:31.045Z,100503.64
2023-05-15T00:50:58.115Z,100503.13
2023-05-15T00:53:25.283Z,100504.16
2023-05-15T00:55:52.418Z,100503.30
2023-05-15T00:58:19.325Z,100503.48
2023-05-15T01:00:46.352Z,100504.66
2023-05-15T01:03:13.537Z,100501.85
2023-05-15T01:05:40.555Z,100503.08
2023-05-15T01:08:47.794Z,100507.92
2023-05-15T01:11:15.429Z,100502.13
2023-05-15T01:13:42.644Z,100501.15
2023-05-15T01:16:09.939Z,100498.63
2023-05-15T01:18:36.952Z,100495.98
2023-05-15T01:21:16.036Z,100498.52
2023-05-15T01:23:55.053Z,100501.30
2023-05-15T01:26:43.485Z,100501.84
2023-05-15T01:29:37.918Z,100504.85
2023-05-15T01:32:09.525Z,100500.83
2023-05-15T01:35:05.856Z,100498.71
2023-05-15T01:37:32.794Z,100501.84
2023-05-15T01:40:01.542Z,100502.16
2023-05-15T01:42:31.258Z,100501.94
2023-05-15T01:44:58.150Z,100498.28
2023-05-15T01:47:40.878Z,100496.19
2023-05-15T01:50:08.001Z,100495.47
2023-05-15T01:52:37.717Z,100497.90
2023-05-15T01:55:06.053Z,100493.19
2023-05-15T01:57:33.855Z,100490.90
2023-05-15T02:00:00.778Z,100490.37
2023-05-15T02:02:28.083Z,100487.71
2023-05-15T02:04:56.750Z,100493.58
2023-05-15T02:07:23.947Z,100495.79
2023-05-15T02:09:53.847Z,100495.25
2023-05-15T02:12:21.271Z,100492.20
2023-05-15T02:14:49.121Z,100496.85
2023-05-15T02:17:16.548Z,100497.39
2023-05-15T02:19:43.919Z,100499.27
2023-05-15T02:22:10.860Z,100501.84
2023-05-15T02:24:37.789Z,100501.62
2023-05-15T02:27:26.866Z,100501.05
2023-05-15T02:30:09.213Z,100504.39
2023-05-15T02:32:48.620Z,100505.52
2023-05-15T02:35:19.824Z,100507.90
2023-05-15T02:37:48.363Z,100504.11
2023-05-15T02:40:15.341Z,100506.44
2023-05-15T02:42:43.175Z,100505.79
2023-05-15T02:45:10.951Z,100505.63
2023-05-15T02:47:37.893Z,100508.93
2023-05-15T02:50:05.638Z,100509.45
2023-05-15T02:52:36.222Z,100512.09
2023-05-15T02:55:03.554Z,100514.77
2023-05-15T02:57:30.741Z,100512.93
2023-05-15T02:59:57.845Z,100510.94
2023-05-15T03:02:24.820Z,100508.52
2023-05-15T03:04:52.105Z,100506.92
2023-05-15T03:07:19.123Z,100507.48
2023-05-15T03:09:46.127Z,100511.39
2023-05-15T03:12:13.053Z,100514.78
2023-05-15T03:14:40.115Z,100516.03
2023-05-15T03:17:07.442Z,100513.70
2023-05-15T03:19:34.337Z,100513.15
2023-05-15T03:22:01.313Z,100514.98
2023-05-15T03:24:28.274Z,100511.05
2023-05-15T03:26:55.296Z,100512.52
2023-05-15T03:29:22.206Z,100515.39
2023-05-15T03:31:49.181Z,100518.27
2023-05-15T03:34:16.177Z,100518.05
2023-05-15T03:36:43.282Z,100516.95
2023-05-15T03:39:11.109Z,100517.42
2023-05-15T03:41:38.213Z,100522.23
2023-05-15T03:44:05.579Z,100523.59
2023-05-15T03:46:32.613Z,100524.23
2023-05-15T03:48:59.659Z,100526.61
2023-05-15T03:51:26.660Z,100527.77
2023-05-15T03:53:53.791Z,100527.14
2023-05-15T03:56:23.336Z,100531.57
2023-05-15T03:58:50.314Z,100531.30
2023-05-15T04:01:17.655Z,100526.14
2023-05-15T04:03:44.716Z,100523.44
2023-05-15T04:06:11.793Z,100520.00
2023-05-15T04:08:39.711Z,100517.08
2023-05-15T04:11:07.552Z,100512.23
2023-05-15T04:13:34.470Z,100510.01
2023-05-15T04:16:01.354Z,100505.34
2023-05-15T04:18:28.356Z,100505.34
2023-05-15T04:20:55.492Z,100503.60
2023-05-15T04:23:22.416Z,100498.54
2023-05-15T04:25:49.407Z,100504.13
2023-05-15T04:28:17.102Z,100506.55
2023-05-15T04:30:44.091Z,100508.13
2023-05-15T04:33:11.385Z,100504.27
2023-05-15T04:35:38.333Z,100504.77
2023-05-15T04:38:05.773Z,100505.45
2023-05-15T04:40:32.663Z,100502.45
2023-05-15T04:42:59.618Z,100502.06
2023-05-15T04:45:26.724Z,100498.86
2023-05-15T04:47:53.990Z,100493.00
2023-05-15T04:50:21.047Z,100489.25
2023-05-15T04:52:48.552Z,100488.98
2023-05-15T04:55:15.728Z,100492.36
2023-05-15T04:57:42.580Z,100490.52
2023-05-15T05:00:12.780Z,100492.14
2023-05-15T05:02:40.252Z,100485.15
2023-05-15T05:05:07.786Z,100482.19
2023-05-15T05:07:35.566Z,100479.91
2023-05-15T05:10:04.096Z,100473.05
2023-05-15T05:12:31.018Z,100473.55
2023-05-15T05:14:58.042Z,100466.34
2023-05-15T05:17:25.072Z,100468.42
2023-05-15T05:19:52.037Z,100475.89
2023-05-15T05:22:19.072Z,100474.94
2023-05-15T05:24:47.418Z,100477.69
2023-05-15T05:27:17.996Z,100475.66
2023-05-15T05:30:00.666Z,100479.41
2023-05-15T05:37:33.386Z,100473.98
2023-05-15T05:41:18.220Z,100470.81
2023-05-15T05:45:13.595Z,100471.92
2023-05-15T05:56:24.778Z,100461.51
2023-05-15T05:58:51.802Z,100457.33
2023-05-15T06:01:37.631Z,100457.47
2023-05-15T06:04:05.216Z,100456.55
2023-05-15T06:06:34.677Z,100452.25
2023-05-15T06:09:06.233Z,100450.96
2023-05-15T06:11:35.111Z,100446.98
2023-05-15T06:14:21.440Z,100446.70
2023-05-15T06:25:57.983Z,100448.41
2023-05-15T06:29:59.936Z,100442.41
2023-05-15T06:33:10.741Z,100442.50
2023-05-15T06:36:23.430Z,100439.99
2023-05-15T06:40:10.780Z,100437.28
2023-05-15T06:43:29.012Z,100436.17
2023-05-15T06:46:27.356Z,100433.92
2023-05-15T06:49:50.099Z,100432.19
2023-05-15T06:52:53.283Z,100425.27
2023-05-15T06:55:34.230Z,100423.15
2023-05-15T06:58:01.266Z,100419.58
2023-05-15T07:00:33.828Z,100416.17
2023-05-15T07:07:07.457Z,100408.77
2023-05-15T07:10:02.686Z,100406.23
2023-05-15T07:12:41.950Z,100407.75
2023-05-15T07:15:27.821Z,100404.42
2023-05-15T07:18:37.655Z,100404.38
2023-05-15T07:21:24.192Z,100402.21
2023-05-15T07:24:37.758Z,100402.45
2023-05-15T07:27:57.514Z,100395.41
2023-05-15T07:31:19.397Z,100395.67
2023-05-15T07:37:49.852Z,100385.56
2023-05-15T07:40:16.793Z,100386.48
2023-05-15T07:42:44.343Z,100385.39
2023-05-15T07:45:11.529Z,100381.77
2023-05-15T07:47:38.508Z,100383.35
2023-05-15T07:50:05.975Z,100383.12
2023-05-15T07:52:34.245Z,100384.04
2023-05-15T07:55:02.424Z,100384.83
2023-05-15T07:57:29.960Z,100381.08
2023-05-15T07:59:56.979Z,100381.71
2023-05-15T08:02:27.368Z,100389.36
2023-05-15T08:05:33.176Z,100382.08
2023-05-15T08:20:34.261Z,100372.10
2023-05-15T08:23:27.775Z,100367.85
2023-05-15T08:25:54.651Z,100368.30
2023-05-15T08:28:21.574Z,100367.52
2023-05-15T08:30:59.251Z,100361.73
2023-05-15T08:33:39.675Z,100355.23
2023-05-15T08:36:08.393Z,100358.70
2023-05-15T08:38:39.159Z,100353.39
2023-05-15T08:44:19.618Z,100352.55
2023-05-15T08:46:50.655Z,100351.23
2023-05-15T08:49:48.421Z,100350.35
2023-05-15T08:52:47.917Z,100342.15
2023-05-15T08:56:25.148Z,100344.67
2023-05-15T09:03:55.859Z,100343.34
2023-05-15T09:07:48.028Z,100345.46
2023-05-15T09:11:42.501Z,100337.39
2023-05-15T09:14:37.285Z,100329.67
2023-05-15T09:17:30.210Z,100331.04
2023-05-15T09:23:47.384Z,100317.00
2023-05-15T09:29:12.305Z,100321.52
2023-05-15T09:31:40.926Z,100319.51
2023-05-15T09:34:10.296Z,100324.95
2023-05-15T09:36:51.581Z,100321.02
2023-05-15T09:40:06.120Z,100321.48
2023-05-15T09:42:40.920Z,100312.98
2023-05-15T09:45:26.168Z,100314.94
2023-05-15T09:48:00.247Z,100311.85
2023-05-15T09:50:46.069Z,100305.86
2023-05-15T09:53:14.189Z,100300.62
2023-05-15T09:55:54.218Z,100298.52
2023-05-15T09:58:27.040Z,100295.30
2023-05-15T10:00:58.444Z,100296.25
2023-05-15T10:03:26.115Z,100294.34
2023-05-15T10:06:03.530Z,100292.25
2023-05-15T10:08:35.624Z,100290.08
2023-05-15T10:11:05.150Z,100291.98
2023-05-15T10:13:32.947Z,100289.88
2023-05-15T10:16:00.049Z,100289.77
2023-05-15T10:18:27.577Z,100293.16
2023-05-15T10:21:01.741Z,100295.27
2023-05-15T10:23:34.568Z,100287.50
2023-05-15T10:26:03.383Z,100282.98
2023-05-15T10:28:30.495Z,100282.36
2023-05-15T10:30:59.362Z,100280.67
2023-05-15T10:33:26.493Z,100279.60
2023-05-15T10:35:53.881Z,100285.33
2023-05-15T10:38:20.846Z,100282.45
2023-05-15T10:40:48.695Z,100280.12
2023-05-15T10:43:16.332Z,100273.23
2023-05-15T10:45:43.692Z,100275.17
2023-05-15T10:48:12.440Z,100273.84
2023-05-15T10:50:39.594Z,100271.20
2023-05-15T10:53:06.671Z,100278.91
2023-05-15T10:55:37.899Z,100273.89
2023-05-15T10:58:09.644Z,100273.48
2023-05-15T11:00:44.225Z,100273.67
2023-05-15T11:03:47.951Z,100275.91
2023-05-15T11:06:16.009Z,100272.23
2023-05-15T11:08:46.043Z,100268.02
2023-05-15T11:11:56.007Z,100265.98
2023-05-15T11:14:24.045Z,100270.63
2023-05-15T11:16:54.217Z,100271.52
2023-05-15T11:19:46.105Z,100278.45
2023-05-15T11:22:36.124Z,100274.60
2023-05-15T11:25:10.146Z,100279.30
2023-05-15T11:27:46.464Z,100277.23
2023-05-15T11:30:22.268Z,100273.73
2023-05-15T11:33:05.082Z,100271.34
2023-05-15T11:35:39.423Z,100268.09
2023-05-15T11:38:14.047Z,100268.83
2023-05-15T11:40:47.556Z,100263.77
2023-05-15T11:43:24.822Z,100262.48
2023-05-15T11:45:55.721Z,100260.09
2023-05-15T11:48:23.868Z,100255.83
2023-05-15T11:50:53.694Z,100250.81
2023-05-15T11:53:20.741Z,100248.23
2023-05-15T11:55:47.863Z,100248.98
2023-05-15T11:58:16.193Z,100246.61
2023-05-15T12:00:43.988Z,100240.60
2023-05-15T12:03:16.202Z,100234.98
2023-05-15T12:05:54.135Z,100230.39
2023-05-15T12:08:24.989Z,100233.61
2023-05-15T12:10:51.836Z,100230.70
2023-05-15T12:13:18.775Z,100232.27
2023-05-15T12:15:46.378Z,100230.36
2023-05-15T12:18:13.884Z,100228.83
2023-05-15T12:20:45.103Z,100232.61
2023-05-15T12:23:15.516Z,100230.43
2023-05-15T12:25:42.344Z,100230.23
2023-05-15T12:28:09.229Z,100227.02
2023-05-15T12:30:36.145Z,100223.53
2023-05-15T12:33:04.562Z,100217.56
2023-05-15T12:35:36.005Z,100214.25
2023-05-15T12:38:06.627Z,100210.55
2023-05-15T12:40:34.290Z,100210.98
2023-05-15T12:43:07.689Z,100214.34
